Time;durP1;ratioP1;P1;durP2;ratioP2;P2;SDS_P1;SDS_P2;PMS_P1;PMS_P2;Temp;Humidity;BMP_temperature;BMP_pressure;BME280_temperature;BME280_humidity;BME280_pressure;Samples;Min_cycle;Max_cycle;Signal;HPM_P1;HPM_P2
2020/12/25 06:19:00;;;;;;;3.37;0.60;;;0.00;99.90;;;;;;1423698;23;20484;-86
2020/12/25 06:21:49;;;;;;;2.50;0.63;;;0.10;99.90;;;;;;5000689;28;20197;-86
2020/12/25 06:24:18;;;;;;;5.20;0.90;;;0.00;99.90;;;;;;5002686;28;20143;-88
2020/12/25 06:27:44;;;;;;;3.20;0.70;;;0.00;99.90;;;;;;5001880;28;20154;-87
2020/12/25 06:33:45;;;;;;;2.70;0.63;;;0.00;99.90;;;;;;5000247;28;20182;-86
2020/12/25 06:36:34;;;;;;;3.90;0.80;;;-0.10;99.90;;;;;;4986285;28;20151;-87
2020/12/25 06:39:18;;;;;;;4.67;1.07;;;0.00;99.90;;;;;;5002928;28;20190;-88
2020/12/25 06:42:05;;;;;;;4.10;1.07;;;0.10;99.90;;;;;;5000327;28;20153;-88
2020/12/25 06:44:41;;;;;;;3.67;0.80;;;0.10;99.90;;;;;;4999318;28;20146;-86
2020/12/25 06:47:26;;;;;;;3.03;0.90;;;0.10;99.90;;;;;;4987496;28;20158;-85
2020/12/25 06:49:58;;;;;;;2.27;0.60;;;0.10;99.90;;;;;;5002296;28;20165;-86
2020/12/25 06:56:22;;;;;;;6.40;0.90;;;0.00;99.90;;;;;;5000044;28;20180;-86
2020/12/25 07:02:11;;;;;;;5.47;1.10;;;-0.10;99.90;;;;;;5001167;28;20164;-85
2020/12/25 07:04:38;;;;;;;2.67;0.60;;;-0.10;99.90;;;;;;4989609;28;20173;-85
2020/12/25 07:07:22;;;;;;;4.40;0.90;;;-0.10;99.90;;;;;;4988489;28;20158;-86
2020/12/25 07:13:23;;;;;;;2.80;0.70;;;-0.10;99.90;;;;;;4996900;28;20166;-86
2020/12/25 07:16:09;;;;;;;3.73;1.00;;;-0.20;99.90;;;;;;4985538;28;20154;-87
2020/12/25 07:18:39;;;;;;;5.07;1.00;;;-0.20;99.90;;;;;;4999168;28;20175;-87
2020/12/25 07:21:09;;;;;;;3.63;0.97;;;-0.20;99.90;;;;;;4985136;28;20174;-86
2020/12/25 07:24:10;;;;;;;4.77;1.00;;;-0.20;99.90;;;;;;5001839;28;20131;-86
2020/12/25 07:26:38;;;;;;;3.83;1.17;;;-0.20;99.90;;;;;;5001863;28;20145;-86
2020/12/25 07:29:13;;;;;;;5.10;1.10;;;-0.20;99.90;;;;;;4985101;28;20142;-87
2020/12/25 07:31:49;;;;;;;3.40;1.10;;;-0.20;99.90;;;;;;5001648;28;20158;-87
2020/12/25 07:34:21;;;;;;;3.67;0.80;;;-0.40;99.90;;;;;;4985395;28;20138;-87
2020/12/25 07:36:52;;;;;;;2.67;0.90;;;-0.30;99.90;;;;;;4983802;28;20159;-88
2020/12/25 07:39:25;;;;;;;2.73;0.60;;;-0.30;99.90;;;;;;4998293;28;20217;-87
2020/12/25 07:41:53;;;;;;;3.03;0.73;;;-0.30;99.90;;;;;;5001675;28;20138;-88
2020/12/25 07:44:26;;;;;;;2.93;0.77;;;-0.30;99.90;;;;;;4985211;28;20149;-86
2020/12/25 07:46:57;;;;;;;4.63;1.10;;;-0.40;99.90;;;;;;4983924;28;20155;-88
2020/12/25 07:49:32;;;;;;;2.80;0.70;;;-0.30;99.90;;;;;;4968052;28;20147;-87
2020/12/25 07:52:15;;;;;;;3.80;1.00;;;-0.30;99.90;;;;;;4984829;28;20177;-87
2020/12/25 07:54:41;;;;;;;2.33;0.93;;;-0.30;99.90;;;;;;4984576;28;20141;-86
2020/12/25 07:57:51;;;;;;;5.53;1.60;;;-0.20;99.90;;;;;;4969020;28;20235;-86
2020/12/25 08:04:08;;;;;;;4.33;1.27;;;-0.20;99.90;;;;;;5001297;28;20170;-87
2020/12/25 08:07:05;;;;;;;5.40;1.33;;;-0.10;99.90;;;;;;4998855;28;20150;-88
2020/12/25 08:10:28;;;;;;;7.40;1.40;;;-0.20;99.90;;;;;;4978315;28;20150;-88
2020/12/25 08:13:45;;;;;;;3.73;1.23;;;-0.20;99.90;;;;;;4985029;28;20169;-88
2020/12/25 08:27:34;;;;;;;3.70;1.33;;;-0.20;99.90;;;;;;4981829;29;20154;-88
2020/12/25 08:30:50;;;;;;;4.10;0.90;;;-0.10;99.90;;;;;;4948865;29;20143;-87
2020/12/25 08:37:37;;;;;;;4.30;1.40;;;0.00;99.90;;;;;;4942362;29;20184;-85
2020/12/25 08:40:42;;;;;;;5.80;1.83;;;-0.10;99.90;;;;;;4951529;29;20219;-88
2020/12/25 08:48:49;;;;;;;3.50;1.17;;;0.10;99.90;;;;;;5031105;23;20196;-87
2020/12/25 08:51:20;;;;;;;5.83;1.57;;;0.10;99.90;;;;;;4968941;28;20174;-88
2020/12/25 08:53:52;;;;;;;4.60;1.20;;;0.10;99.90;;;;;;4997038;28;20158;-87
2020/12/25 08:56:23;;;;;;;4.00;1.20;;;0.20;99.90;;;;;;4984176;28;20214;-87
2020/12/25 08:59:01;;;;;;;4.73;1.10;;;0.20;99.90;;;;;;4984089;28;20162;-85
2020/12/25 09:01:32;;;;;;;3.43;1.00;;;0.10;99.90;;;;;;5000813;28;20199;-87
2020/12/25 09:04:00;;;;;;;6.43;1.33;;;0.30;99.90;;;;;;5000041;28;20146;-85
2020/12/25 09:06:30;;;;;;;3.63;0.90;;;0.30;99.90;;;;;;4982516;28;20151;-87
2020/12/25 09:09:20;;;;;;;5.10;1.43;;;0.40;99.90;;;;;;4971334;29;20148;-84
2020/12/25 09:11:48;;;;;;;8.70;1.20;;;0.40;99.90;;;;;;4977054;28;20144;-87
2020/12/25 09:14:15;;;;;;;5.80;1.10;;;0.40;99.90;;;;;;4964168;29;20143;-87
2020/12/25 09:16:57;;;;;;;2.83;0.73;;;0.40;99.90;;;;;;4993424;28;20160;-87
2020/12/25 09:19:25;;;;;;;3.43;0.93;;;0.40;99.90;;;;;;4961750;29;20191;-86
2020/12/25 09:21:56;;;;;;;4.87;1.20;;;0.40;99.90;;;;;;5002354;28;20150;-86
2020/12/25 09:24:24;;;;;;;4.20;1.00;;;0.50;99.90;;;;;;4986921;28;20163;-87
2020/12/25 09:26:59;;;;;;;4.23;1.00;;;0.60;99.90;;;;;;4987930;28;20228;-86
2020/12/25 09:29:34;;;;;;;6.37;1.20;;;0.50;99.90;;;;;;4996623;28;20158;-86
2020/12/25 09:32:03;;;;;;;2.73;0.70;;;0.60;99.90;;;;;;4987313;28;20159;-87
2020/12/25 09:53:28;;;;;;;3.57;0.63;;;0.90;99.90;;;;;;5184267;23;20221;-86
2020/12/25 18:00:05;;;;;;;14.53;6.10;;;0.40;99.90;;;;;;5141315;23;20269;-89
2020/12/25 18:02:30;;;;;;;21.43;8.37;;;0.30;99.90;;;;;;4937111;29;20180;-89
2020/12/25 18:04:56;;;;;;;21.03;7.73;;;0.30;99.90;;;;;;4942468;29;20191;-88
2020/12/25 18:07:21;;;;;;;15.40;7.13;;;0.20;99.90;;;;;;4933288;29;20259;-88
2020/12/25 18:09:47;;;;;;;18.70;6.50;;;0.20;99.90;;;;;;4935071;29;20192;-88
2020/12/25 18:12:12;;;;;;;27.80;11.53;;;0.20;99.90;;;;;;4931537;29;20327;-89
2020/12/25 18:14:38;;;;;;;22.30;10.00;;;0.10;99.90;;;;;;4932964;29;20281;-88
2020/12/25 18:17:07;;;;;;;14.67;5.77;;;0.00;99.90;;;;;;4936296;29;20294;-88
2020/12/25 18:19:33;;;;;;;17.77;8.97;;;0.00;99.90;;;;;;4937628;29;20234;-88
2020/12/25 18:22:00;;;;;;;31.47;18.10;;;0.10;99.90;;;;;;4938602;29;20183;-87
2020/12/25 18:24:26;;;;;;;45.60;26.37;;;-0.10;99.90;;;;;;4931441;29;20194;-86
2020/12/25 18:26:52;;;;;;;34.70;23.13;;;-0.10;99.90;;;;;;4930520;29;20203;-88
2020/12/25 18:29:18;;;;;;;23.47;16.17;;;-0.10;99.90;;;;;;4928858;29;20526;-89
2020/12/25 18:31:43;;;;;;;39.30;17.97;;;-0.10;99.90;;;;;;4954666;29;20816;-88
2020/12/25 18:34:08;;;;;;;40.20;19.30;;;-0.20;99.90;;;;;;4929430;29;20183;-87
2020/12/25 18:36:34;;;;;;;187.17;65.50;;;-0.20;99.90;;;;;;4931600;29;20214;-88
2020/12/25 18:38:59;;;;;;;287.57;105.23;;;-0.20;99.90;;;;;;4924525;29;20652;-89
2020/12/25 18:41:29;;;;;;;170.47;63.50;;;-0.20;99.90;;;;;;4923283;29;20207;-89
2020/12/25 18:43:55;;;;;;;90.57;35.03;;;-0.30;99.90;;;;;;4932126;29;20214;-90
2020/12/25 18:46:20;;;;;;;44.97;18.70;;;-0.20;99.90;;;;;;4934145;29;20178;-88
2020/12/25 18:48:46;;;;;;;26.17;12.53;;;-0.20;99.90;;;;;;4929017;29;20278;-89
2020/12/25 18:51:15;;;;;;;27.33;10.10;;;-0.10;99.90;;;;;;4937063;29;20555;-88
2020/12/25 18:53:45;;;;;;;11.80;6.37;;;-0.10;99.90;;;;;;4933750;29;20202;-87
2020/12/25 18:56:11;;;;;;;12.07;7.72;;;0.10;99.90;;;;;;4927157;29;20435;-88
2020/12/25 18:58:36;;;;;;;9.10;5.00;;;0.10;99.90;;;;;;4934073;29;20210;-88
2020/12/25 19:01:03;;;;;;;11.47;5.30;;;0.10;99.90;;;;;;4928485;29;20212;-87
2020/12/25 19:03:28;;;;;;;10.27;4.70;;;0.00;99.90;;;;;;4921949;29;20648;-87
2020/12/25 19:05:54;;;;;;;10.37;3.90;;;0.10;99.90;;;;;;4943088;29;20240;-87
2020/12/25 19:08:20;;;;;;;8.00;3.40;;;0.10;99.90;;;;;;4929952;29;20202;-87
2020/12/25 19:10:49;;;;;;;10.03;3.20;;;0.10;99.90;;;;;;4929660;29;20253;-87
2020/12/25 19:13:15;;;;;;;9.20;3.10;;;0.00;99.90;;;;;;4929402;29;20186;-86
2020/12/25 19:15:40;;;;;;;10.67;4.27;;;0.00;99.90;;;;;;4932721;29;20193;-87
2020/12/25 19:18:06;;;;;;;7.53;3.40;;;-0.10;99.90;;;;;;4932765;29;20258;-87
2020/12/25 19:20:31;;;;;;;9.53;4.60;;;-0.20;99.90;;;;;;4931275;29;20210;-88
2020/12/25 19:22:57;;;;;;;11.93;5.90;;;-0.30;99.90;;;;;;4934529;29;20184;-89
2020/12/25 19:25:22;;;;;;;11.97;5.53;;;-0.30;99.90;;;;;;4932899;29;20250;-87
2020/12/25 19:27:48;;;;;;;14.37;5.67;;;-0.40;99.90;;;;;;4932552;29;20262;-87
2020/12/25 19:30:13;;;;;;;11.23;5.20;;;-0.30;99.90;;;;;;4933683;29;20194;-87
2020/12/25 19:32:39;;;;;;;11.37;4.13;;;-0.40;99.90;;;;;;4932448;29;20190;-90
2020/12/25 19:35:05;;;;;;;12.83;6.30;;;-0.40;99.90;;;;;;4927304;29;20187;-87
2020/12/25 19:37:30;;;;;;;11.03;7.00;;;-0.50;99.90;;;;;;4924630;29;20208;-87
2020/12/25 19:39:56;;;;;;;15.00;10.60;;;-0.50;99.90;;;;;;4936213;29;20202;-86
2020/12/25 19:42:21;;;;;;;18.73;12.93;;;-0.50;99.90;;;;;;4928725;29;20187;-88
2020/12/25 19:44:47;;;;;;;20.60;12.53;;;-0.50;99.90;;;;;;4927236;29;20187;-86
2020/12/25 19:47:13;;;;;;;13.87;9.47;;;-0.40;99.90;;;;;;4930355;29;20210;-88
2020/12/25 19:49:38;;;;;;;12.80;6.27;;;-0.40;99.90;;;;;;4930666;29;20184;-88
2020/12/25 19:52:04;;;;;;;9.00;4.17;;;-0.40;99.90;;;;;;4923479;29;20195;-88
2020/12/25 19:54:30;;;;;;;6.77;2.93;;;-0.50;99.90;;;;;;4928541;29;20194;-86
2020/12/25 19:56:55;;;;;;;8.80;3.17;;;-0.50;99.90;;;;;;4931743;29;20207;-88
2020/12/25 19:59:21;;;;;;;8.23;3.10;;;-0.50;99.90;;;;;;4935730;29;20222;-88
2020/12/25 20:01:47;;;;;;;9.80;2.93;;;-0.60;99.90;;;;;;4927166;29;20179;-89
2020/12/25 20:04:14;;;;;;;6.73;2.90;;;-0.60;99.90;;;;;;4935974;29;20181;-87
2020/12/25 20:06:40;;;;;;;7.37;3.67;;;-0.60;99.90;;;;;;4935317;29;20573;-87
2020/12/25 20:09:14;;;;;;;15.53;5.70;;;-0.70;99.90;;;;;;4927590;29;20207;-87
2020/12/25 20:11:39;;;;;;;15.07;5.70;;;-0.70;99.90;;;;;;4925294;29;20186;-86
2020/12/25 20:14:05;;;;;;;14.17;5.83;;;-0.70;99.90;;;;;;4924833;29;20188;-88
2020/12/25 20:16:30;;;;;;;13.83;6.97;;;-0.80;99.90;;;;;;4932904;29;20674;-87
2020/12/25 20:18:56;;;;;;;17.23;8.87;;;-0.70;99.90;;;;;;4936018;29;20174;-87
2020/12/25 20:21:21;;;;;;;12.97;6.17;;;-0.70;99.90;;;;;;4936971;29;20230;-87
2020/12/25 20:23:47;;;;;;;14.57;6.67;;;-0.70;99.90;;;;;;4927007;29;20262;-88
2020/12/25 20:26:16;;;;;;;11.03;5.53;;;-0.60;99.90;;;;;;4922748;29;20271;-88
2020/12/25 20:28:43;;;;;;;12.00;5.30;;;-0.70;99.90;;;;;;4927455;29;20234;-88
2020/12/25 20:31:15;;;;;;;10.73;4.67;;;-0.70;99.90;;;;;;4921880;29;20206;-87
2020/12/25 20:33:42;;;;;;;11.90;5.03;;;-0.60;99.90;;;;;;4930708;29;20187;-87
2020/12/25 20:36:07;;;;;;;12.97;4.40;;;-0.70;99.90;;;;;;4937497;29;20926;-87
2020/12/25 20:38:33;;;;;;;10.97;3.60;;;-0.70;99.90;;;;;;4936251;29;20306;-88
2020/12/25 20:40:58;;;;;;;10.50;3.60;;;-0.70;99.90;;;;;;4933123;29;20289;-87
2020/12/25 20:43:24;;;;;;;13.30;3.70;;;-0.60;99.90;;;;;;4927415;29;20195;-87
2020/12/25 20:45:50;;;;;;;7.53;3.13;;;-0.70;99.90;;;;;;4934226;29;20183;-87
2020/12/25 20:48:42;;;;;;;8.07;2.90;;;-0.70;99.90;;;;;;4932981;29;20210;-87
2020/12/25 20:51:09;;;;;;;6.97;2.60;;;-0.60;99.90;;;;;;4931862;29;20197;-86
2020/12/25 20:53:35;;;;;;;10.80;2.90;;;-0.70;99.90;;;;;;4935879;29;20195;-87
2020/12/25 20:56:00;;;;;;;7.40;2.73;;;-0.70;99.90;;;;;;4929881;29;20197;-86
2020/12/25 20:58:26;;;;;;;7.80;2.20;;;-0.70;99.90;;;;;;4944144;28;20206;-88
2020/12/25 21:00:51;;;;;;;5.93;2.10;;;-0.80;99.90;;;;;;4935183;29;20219;-87
2020/12/25 21:03:18;;;;;;;5.37;2.03;;;-0.70;99.90;;;;;;4932822;29;20171;-87
2020/12/25 21:05:43;;;;;;;6.57;2.17;;;-0.70;99.90;;;;;;4928510;29;20188;-87
2020/12/25 21:08:09;;;;;;;7.00;2.10;;;-0.70;99.90;;;;;;4930302;29;20194;-87
2020/12/25 21:10:40;;;;;;;5.53;2.33;;;-0.60;99.90;;;;;;4933010;29;22014;-90
2020/12/25 21:13:06;;;;;;;5.10;2.33;;;-0.70;99.90;;;;;;4939310;29;20186;-89
2020/12/25 21:15:32;;;;;;;7.77;2.20;;;-0.80;99.90;;;;;;4944839;29;20662;-88
2020/12/25 21:17:57;;;;;;;5.53;2.43;;;-0.80;99.90;;;;;;4943947;29;20203;-88
2020/12/25 21:20:23;;;;;;;7.27;2.60;;;-0.70;99.90;;;;;;4942335;29;20246;-88
2020/12/25 21:22:48;;;;;;;6.87;2.40;;;-0.70;99.90;;;;;;4942200;29;20258;-87
2020/12/25 21:25:15;;;;;;;7.70;2.80;;;-0.70;99.90;;;;;;4945997;29;20186;-88
2020/12/25 21:27:41;;;;;;;6.13;2.70;;;-0.60;99.90;;;;;;4943419;29;20259;-88
2020/12/25 21:30:06;;;;;;;7.23;2.90;;;-0.60;99.90;;;;;;4942247;29;20576;-88
2020/12/25 21:32:32;;;;;;;7.13;2.50;;;-0.60;99.90;;;;;;4950209;29;20187;-88
2020/12/25 21:34:57;;;;;;;6.53;2.77;;;-0.60;99.90;;;;;;4944602;29;20195;-87
2020/12/25 21:37:23;;;;;;;7.30;2.40;;;-0.60;99.90;;;;;;4936321;29;20221;-89
2020/12/25 21:39:48;;;;;;;6.50;2.40;;;-0.60;99.90;;;;;;4944144;29;20233;-89
2020/12/25 21:42:14;;;;;;;6.87;2.43;;;-0.70;99.90;;;;;;4943167;29;20191;-88
2020/12/25 21:44:39;;;;;;;6.30;2.60;;;-0.70;99.90;;;;;;4942634;29;20181;-89
2020/12/25 21:47:05;;;;;;;6.90;2.43;;;-0.70;99.90;;;;;;4940511;29;20677;-88
2020/12/25 21:49:31;;;;;;;7.20;2.77;;;-0.70;99.90;;;;;;4942365;29;20225;-87
2020/12/25 21:52:01;;;;;;;9.10;2.93;;;-0.80;99.90;;;;;;4961298;29;20183;-87
2020/12/25 21:54:26;;;;;;;8.87;2.97;;;-0.70;99.90;;;;;;4943644;29;20187;-87
2020/12/25 21:56:52;;;;;;;6.87;2.67;;;-0.70;99.90;;;;;;4942725;29;20778;-87
2020/12/25 21:59:17;;;;;;;6.87;2.53;;;-0.80;99.90;;;;;;4937643;29;20294;-87
2020/12/25 22:01:43;;;;;;;7.53;2.83;;;-0.80;99.90;;;;;;4941761;29;20187;-88
2020/12/25 22:04:08;;;;;;;6.47;2.43;;;-0.80;99.90;;;;;;4939542;29;20635;-87
2020/12/25 22:06:34;;;;;;;9.00;2.30;;;-0.90;99.90;;;;;;4941493;29;20265;-87
2020/12/25 22:08:59;;;;;;;6.10;1.90;;;-0.90;99.90;;;;;;4941773;29;20186;-87
2020/12/25 22:11:26;;;;;;;8.97;2.17;;;-0.90;99.90;;;;;;4943901;29;20179;-88
2020/12/25 22:13:52;;;;;;;6.30;1.90;;;-0.90;99.90;;;;;;4943457;29;20182;-87
2020/12/25 22:16:19;;;;;;;5.27;1.70;;;-0.90;99.90;;;;;;4944069;29;20183;-87
2020/12/25 22:18:45;;;;;;;5.00;1.73;;;-0.90;99.90;;;;;;4942954;28;20630;-88
2020/12/25 22:21:10;;;;;;;5.73;1.90;;;-0.80;99.90;;;;;;4942521;29;20210;-87
2020/12/25 22:23:36;;;;;;;5.63;1.70;;;-0.80;99.90;;;;;;4943944;29;20175;-88
2020/12/25 22:26:01;;;;;;;5.80;2.10;;;-0.70;99.90;;;;;;4942489;29;20179;-88
2020/12/25 22:28:27;;;;;;;5.47;1.60;;;-0.80;99.90;;;;;;4942265;29;20198;-88
2020/12/25 22:30:52;;;;;;;5.17;1.70;;;-0.90;99.90;;;;;;4943960;29;21469;-87
2020/12/25 22:33:18;;;;;;;5.20;1.90;;;-0.90;99.90;;;;;;4943489;29;20179;-87
2020/12/25 22:35:43;;;;;;;5.30;2.20;;;-0.80;99.90;;;;;;4943178;29;20187;-87
2020/12/25 22:38:09;;;;;;;7.10;2.37;;;-0.80;99.90;;;;;;4939699;29;20495;-86
2020/12/25 22:40:35;;;;;;;6.17;2.37;;;-0.90;99.90;;;;;;4944132;29;20234;-88
2020/12/25 22:43:00;;;;;;;7.30;2.40;;;-0.90;99.90;;;;;;4943102;29;20261;-86
2020/12/25 22:45:25;;;;;;;5.87;2.00;;;-0.90;99.90;;;;;;4943386;29;20183;-89
2020/12/25 22:47:51;;;;;;;8.13;2.33;;;-0.80;99.90;;;;;;4934049;29;20206;-87
2020/12/25 22:50:16;;;;;;;6.60;1.83;;;-0.80;99.90;;;;;;4943639;29;20179;-87
2020/12/25 22:52:42;;;;;;;8.07;2.50;;;-0.80;99.90;;;;;;4943280;29;20599;-88
2020/12/25 22:55:08;;;;;;;5.17;1.67;;;-0.80;99.90;;;;;;4942252;29;20183;-88
2020/12/25 22:57:35;;;;;;;5.87;2.00;;;-0.80;99.90;;;;;;4939896;29;20236;-86
2020/12/25 23:00:01;;;;;;;5.27;2.20;;;-0.70;99.90;;;;;;4956778;29;20298;-85
2020/12/25 23:02:28;;;;;;;9.13;2.77;;;-0.70;99.90;;;;;;4935046;29;20598;-86
2020/12/25 23:04:55;;;;;;;7.73;2.20;;;-0.70;99.90;;;;;;4937657;29;20175;-87
2020/12/25 23:07:21;;;;;;;5.80;1.97;;;-0.70;99.90;;;;;;4931164;29;20277;-86
2020/12/25 23:09:46;;;;;;;5.73;1.90;;;-0.70;99.90;;;;;;4933088;29;20278;-88
2020/12/25 23:12:12;;;;;;;5.67;2.20;;;-0.70;99.90;;;;;;4937993;29;20183;-85
2020/12/25 23:14:37;;;;;;;8.40;2.97;;;-0.60;99.90;;;;;;4941343;29;20179;-86
2020/12/25 23:17:03;;;;;;;7.23;2.43;;;-0.60;99.90;;;;;;4938301;29;20722;-87
2020/12/25 23:19:28;;;;;;;4.93;2.13;;;-0.60;99.90;;;;;;4938025;29;20202;-86
2020/12/25 23:21:54;;;;;;;5.50;2.40;;;-0.60;99.90;;;;;;4938200;29;20249;-85
2020/12/25 23:24:19;;;;;;;5.47;2.10;;;-0.60;99.90;;;;;;4938445;29;20171;-85
2020/12/25 23:26:45;;;;;;;5.67;2.53;;;-0.60;99.90;;;;;;4938727;29;20227;-88
2020/12/25 23:29:10;;;;;;;7.97;2.70;;;-0.60;99.90;;;;;;4938403;29;20258;-86
2020/12/25 23:31:36;;;;;;;8.47;2.30;;;-0.60;99.90;;;;;;4937779;29;20179;-86
2020/12/25 23:34:02;;;;;;;6.30;2.30;;;-0.60;99.90;;;;;;4938311;29;20902;-86
2020/12/25 23:36:28;;;;;;;9.13;2.40;;;-0.60;99.90;;;;;;4938243;29;20186;-86
2020/12/25 23:38:54;;;;;;;5.57;2.20;;;-0.60;99.90;;;;;;4939052;29;20191;-86
2020/12/25 23:41:21;;;;;;;5.87;2.20;;;-0.50;99.90;;;;;;4939582;29;20234;-86
2020/12/25 23:43:47;;;;;;;8.03;2.40;;;-0.50;99.90;;;;;;4939562;29;20190;-86
2020/12/25 23:46:13;;;;;;;9.00;2.40;;;-0.50;99.90;;;;;;4938811;29;20183;-87
2020/12/25 23:48:39;;;;;;;7.93;2.13;;;-0.60;99.90;;;;;;4939290;29;20186;-86
2020/12/25 23:51:09;;;;;;;6.87;1.80;;;-0.60;99.90;;;;;;4939418;29;20232;-86
2020/12/25 23:53:35;;;;;;;6.17;2.00;;;-0.50;99.90;;;;;;4939057;29;20599;-86
2020/12/25 23:56:06;;;;;;;4.70;2.33;;;-0.60;99.90;;;;;;4939195;29;20521;-86
2020/12/25 23:58:32;;;;;;;6.57;2.00;;;-0.50;99.90;;;;;;4937645;29;20698;-86
